createdAt,value
2022-10-06T00:02:19.204Z,102165.69
2022-10-06T00:04:46.497Z,102184.19
2022-10-06T00:07:13.835Z,102186.31
2022-10-06T00:09:40.199Z,102186.59
2022-10-06T00:12:06.942Z,102189.88
2022-10-06T00:14:33.338Z,102201.63
2022-10-06T00:16:59.855Z,102213.19
2022-10-06T00:19:26.278Z,102217.28
2022-10-06T00:21:53.249Z,102211.75
2022-10-06T00:24:19.657Z,102226.41
2022-10-06T00:26:47.284Z,102229.50
2022-10-06T00:29:14.797Z,102231.13
2022-10-06T00:31:41.781Z,102235.69
2022-10-06T00:34:08.171Z,102242.84
2022-10-06T00:36:34.619Z,102246.84
2022-10-06T00:39:01.284Z,102263.63
2022-10-06T00:41:28.686Z,102258.22
2022-10-06T00:43:57.633Z,102270.84
2022-10-06T00:46:24.247Z,102274.72
2022-10-06T00:48:59.692Z,102283.13
2022-10-06T00:51:27.264Z,102292.22
2022-10-06T00:53:53.710Z,102299.50
2022-10-06T00:56:20.137Z,102292.97
2022-10-06T00:58:46.549Z,102299.28
2022-10-06T01:01:13.160Z,102310.97
2022-10-06T01:03:45.109Z,102307.00
2022-10-06T01:06:11.705Z,102317.06
2022-10-06T01:08:39.088Z,102323.66
2022-10-06T01:11:06.663Z,102322.47
2022-10-06T01:13:33.282Z,102326.19
2022-10-06T01:16:09.251Z,102325.50
2022-10-06T01:18:39.345Z,102330.72
2022-10-06T01:21:17.156Z,102335.91
2022-10-06T01:23:43.714Z,102343.19
2022-10-06T01:26:11.416Z,102342.69
2022-10-06T01:28:39.335Z,102355.97
2022-10-06T01:31:07.788Z,102359.94
2022-10-06T01:33:34.211Z,102365.44
2022-10-06T01:36:00.632Z,102369.44
2022-10-06T01:38:27.512Z,102379.31
2022-10-06T01:40:54.296Z,102375.34
2022-10-06T01:43:21.345Z,102377.56
2022-10-06T01:45:58.225Z,102378.00
2022-10-06T01:48:25.652Z,102367.22
2022-10-06T01:50:52.457Z,102376.13
2022-10-06T01:53:18.862Z,102374.78
2022-10-06T01:55:46.361Z,102382.97
2022-10-06T01:58:13.080Z,102386.66
2022-10-06T02:00:40.412Z,102391.47
2022-10-06T02:03:07.674Z,102393.66
2022-10-06T02:05:34.827Z,102399.13
2022-10-06T02:08:02.790Z,102398.59
2022-10-06T02:10:29.192Z,102404.06
2022-10-06T02:12:55.566Z,102413.94
2022-10-06T02:15:21.975Z,102424.59
2022-10-06T02:17:48.513Z,102417.88
2022-10-06T02:20:15.367Z,102423.22
2022-10-06T02:22:43.711Z,102429.53
2022-10-06T02:25:11.295Z,102431.59
2022-10-06T02:27:38.264Z,102435.25
2022-10-06T02:30:06.695Z,102440.72
2022-10-06T02:32:38.914Z,102436.75
2022-10-06T02:35:07.701Z,102438.00
2022-10-06T02:37:34.426Z,102441.81
2022-10-06T02:40:00.773Z,102450.72
2022-10-06T02:42:27.373Z,102447.56
2022-10-06T02:44:53.931Z,102450.31
2022-10-06T02:47:22.218Z,102457.53
2022-10-06T02:49:48.543Z,102460.41
2022-10-06T02:52:15.451Z,102466.69
2022-10-06T02:54:42.399Z,102467.63
2022-10-06T02:57:09.394Z,102473.06
2022-10-06T02:59:36.409Z,102471.59
2022-10-06T03:02:02.983Z,102482.09
2022-10-06T03:04:29.934Z,102490.16
2022-10-06T03:06:56.289Z,102492.06
2022-10-06T03:09:22.708Z,102505.97
2022-10-06T03:11:49.092Z,102499.25
2022-10-06T03:14:19.253Z,102503.78
2022-10-06T03:16:48.118Z,102508.41
2022-10-06T03:19:14.495Z,102511.28
2022-10-06T03:21:43.059Z,102515.78
2022-10-06T03:24:10.309Z,102517.53
2022-10-06T03:26:39.559Z,102516.72
2022-10-06T03:29:11.141Z,102526.53
2022-10-06T03:31:38.886Z,102526.66
2022-10-06T03:34:05.819Z,102522.56
2022-10-06T03:36:33.904Z,102530.47
2022-10-06T03:39:02.617Z,102537.56
2022-10-06T03:41:31.529Z,102540.28
2022-10-06T03:43:59.542Z,102553.38
2022-10-06T03:46:28.783Z,102552.00
2022-10-06T03:48:57.262Z,102562.50
2022-10-06T03:51:29.996Z,102572.19
2022-10-06T03:53:57.146Z,102572.31
2022-10-06T03:56:42.652Z,102575.03
2022-10-06T03:59:11.523Z,102572.56
2022-10-06T04:01:43.617Z,102570.25
2022-10-06T04:04:11.232Z,102582.50
2022-10-06T04:06:39.767Z,102582.66
2022-10-06T04:09:14.759Z,102593.94
2022-10-06T04:11:42.854Z,102597.59
2022-10-06T04:14:12.947Z,102604.69
2022-10-06T04:16:42.685Z,102600.69
2022-10-06T04:19:11.038Z,102607.78
2022-10-06T04:21:39.051Z,102620.06
2022-10-06T04:24:07.085Z,102619.38
2022-10-06T04:26:36.615Z,102624.69
2022-10-06T04:29:03.212Z,102621.38
2022-10-06T04:31:31.727Z,102633.41
2022-10-06T04:33:59.835Z,102636.09
2022-10-06T04:36:29.085Z,102639.66
2022-10-06T04:38:58.778Z,102642.38
2022-10-06T04:41:28.005Z,102645.09
2022-10-06T04:43:55.575Z,102647.94
2022-10-06T04:46:42.258Z,102658.41
2022-10-06T04:49:13.344Z,102664.66
2022-10-06T04:51:44.444Z,102662.31
2022-10-06T04:54:10.842Z,102670.22
2022-10-06T04:56:37.208Z,102667.63
2022-10-06T05:01:35.645Z,102673.16
2022-10-06T05:04:03.879Z,102678.47
2022-10-06T05:06:31.446Z,102681.22
2022-10-06T05:09:21.884Z,102679.69
2022-10-06T05:11:48.236Z,102691.81
2022-10-06T05:14:14.603Z,102687.66
2022-10-06T05:16:42.896Z,102697.31
2022-10-06T05:19:09.298Z,102702.63
2022-10-06T05:21:36.140Z,102702.75
2022-10-06T05:24:03.440Z,102708.84
2022-10-06T05:26:31.682Z,102708.28
2022-10-06T05:28:58.356Z,102712.78
2022-10-06T05:31:27.720Z,102714.63
2022-10-06T05:33:55.280Z,102717.22
2022-10-06T05:36:30.353Z,102725.97
2022-10-06T05:38:57.427Z,102730.56
2022-10-06T05:41:26.412Z,102739.13
2022-10-06T05:43:53.208Z,102735.75
2022-10-06T05:46:30.448Z,102747.84
2022-10-06T05:48:59.179Z,102745.38
2022-10-06T05:51:30.947Z,102752.31
2022-10-06T05:53:59.074Z,102760.22
2022-10-06T05:56:33.291Z,102759.16
2022-10-06T05:59:00.530Z,102758.91
2022-10-06T06:01:35.279Z,102756.06
2022-10-06T06:04:03.602Z,102762.78
2022-10-06T06:06:37.888Z,102765.72
2022-10-06T06:09:07.419Z,102775.50
2022-10-06T06:11:35.687Z,102780.78
2022-10-06T06:14:08.512Z,102783.69
2022-10-06T06:16:36.923Z,102779.22
2022-10-06T06:19:03.325Z,102780.53
2022-10-06T06:21:30.043Z,102784.50
2022-10-06T06:23:56.545Z,102790.50
2022-10-06T06:26:28.666Z,102787.03
2022-10-06T06:29:00.124Z,102783.31
2022-10-06T06:31:29.745Z,102793.03
2022-10-06T06:33:57.850Z,102775.78
2022-10-06T06:36:25.696Z,102801.25
2022-10-06T06:38:56.857Z,102796.22
2022-10-06T06:41:27.105Z,102793.69
2022-10-06T06:43:54.039Z,102799.84
2022-10-06T06:46:24.839Z,102808.88
2022-10-06T06:48:52.585Z,102808.63
2022-10-06T06:51:24.154Z,102817.66
2022-10-06T06:53:51.653Z,102816.56
2022-10-06T06:56:18.901Z,102812.78
2022-10-06T06:58:47.399Z,102822.22
2022-10-06T07:01:17.210Z,102830.53
2022-10-06T07:04:03.376Z,102833.72
2022-10-06T07:06:31.055Z,102839.63
2022-10-06T07:08:59.408Z,102837.50
2022-10-06T07:11:32.003Z,102839.38
2022-10-06T07:14:07.053Z,102840.34
2022-10-06T07:16:52.557Z,102849.50
2022-10-06T07:19:39.965Z,102849.22
2022-10-06T07:22:28.094Z,102850.84
2022-10-06T07:25:07.909Z,102866.78
2022-10-06T07:27:43.330Z,102862.50
2022-10-06T07:30:19.183Z,102870.66
2022-10-06T07:32:47.238Z,102874.72
2022-10-06T07:35:14.119Z,102882.00
2022-10-06T07:37:40.707Z,102881.63
2022-10-06T07:40:08.930Z,102884.03
2022-10-06T07:42:48.091Z,102893.19
2022-10-06T07:45:34.273Z,102895.56
2022-10-06T07:48:01.983Z,102915.13
2022-10-06T07:50:28.723Z,102919.31
2022-10-06T07:52:55.097Z,102922.72
2022-10-06T07:55:21.648Z,102924.34
2022-10-06T07:57:50.871Z,102932.84
2022-10-06T08:00:20.875Z,102936.25
2022-10-06T08:02:47.343Z,102930.19
2022-10-06T08:05:14.544Z,102928.66
2022-10-06T08:07:41.180Z,102935.53
2022-10-06T08:10:07.806Z,102933.00
2022-10-06T08:12:34.376Z,102933.31
2022-10-06T08:15:07.073Z,102933.16
2022-10-06T08:17:38.313Z,102938.19
2022-10-06T08:20:07.567Z,102940.63
2022-10-06T08:22:36.032Z,102943.78
2022-10-06T08:25:07.322Z,102950.63
2022-10-06T08:27:35.641Z,102957.78
2022-10-06T08:30:04.437Z,102957.97
2022-10-06T08:32:32.100Z,102957.22
2022-10-06T08:34:58.987Z,102966.31
2022-10-06T08:37:27.187Z,102963.91
2022-10-06T08:39:54.553Z,102973.56
2022-10-06T08:42:42.191Z,102971.78
2022-10-06T08:45:38.865Z,102970.34
2022-10-06T08:48:19.455Z,102987.69
2022-10-06T08:51:23.901Z,102993.59
2022-10-06T08:54:08.155Z,102992.66
2022-10-06T08:56:51.919Z,103005.06
2022-10-06T08:59:18.273Z,103002.81
2022-10-06T09:01:47.784Z,103003.81
2022-10-06T09:04:23.187Z,103003.34
2022-10-06T09:07:05.513Z,103006.13
2022-10-06T09:09:56.215Z,103008.09
2022-10-06T09:12:54.599Z,103015.66
2022-10-06T09:15:48.114Z,103017.59
2022-10-06T09:18:22.579Z,103015.66
2022-10-06T09:21:06.462Z,103018.28
2022-10-06T09:23:50.460Z,103021.22
2022-10-06T09:26:29.202Z,103029.72
2022-10-06T09:28:56.606Z,103033.16
2022-10-06T09:31:25.876Z,103021.88
2022-10-06T09:33:55.277Z,103020.72
2022-10-06T09:36:22.194Z,103026.78
2022-10-06T09:38:53.885Z,103030.56
2022-10-06T09:41:49.819Z,103027.16
2022-10-06T09:44:29.338Z,103032.09
2022-10-06T09:46:55.671Z,103033.09
2022-10-06T09:49:26.625Z,103038.66
2022-10-06T09:52:16.187Z,103039.97
2022-10-06T09:54:43.625Z,103033.91
2022-10-06T09:57:21.381Z,103039.69
2022-10-06T09:59:48.610Z,103038.72
2022-10-06T10:02:30.521Z,103043.91
2022-10-06T10:04:57.560Z,103033.75
2022-10-06T10:07:26.988Z,103038.03
2022-10-06T10:10:10.211Z,103033.09
2022-10-06T10:12:36.608Z,103042.28
2022-10-06T10:15:22.849Z,103046.72
2022-10-06T10:17:52.075Z,103045.91
2022-10-06T10:20:24.551Z,103048.69
2022-10-06T10:22:59.511Z,103047.56
2022-10-06T10:25:46.023Z,103041.78
2022-10-06T10:28:56.398Z,103043.22
2022-10-06T10:31:50.578Z,103038.06
2022-10-06T10:34:38.314Z,103033.84
2022-10-06T10:37:12.222Z,103042.59
2022-10-06T10:40:07.860Z,103037.34
2022-10-06T10:42:40.866Z,103026.34
2022-10-06T10:45:22.572Z,103031.03
2022-10-06T10:47:49.300Z,103031.81
2022-10-06T10:50:30.751Z,103048.78
2022-10-06T10:53:33.005Z,103052.78
2022-10-06T10:56:00.452Z,103055.38
2022-10-06T10:58:33.690Z,103061.81
2022-10-06T11:01:08.251Z,103065.63
2022-10-06T11:03:34.662Z,103060.28
2022-10-06T11:06:30.292Z,103060.81
2022-10-06T11:09:55.235Z,103062.06
2022-10-06T11:12:54.234Z,103075.94
2022-10-06T11:15:32.081Z,103072.63
2022-10-06T11:18:22.292Z,103071.09
2022-10-06T11:20:55.914Z,103075.84
2022-10-06T11:23:45.263Z,103066.28
2022-10-06T11:26:48.920Z,103070.47
2022-10-06T11:29:37.887Z,103063.00
2022-10-06T11:32:46.442Z,103061.81
2022-10-06T11:35:17.614Z,103066.38
2022-10-06T11:38:20.333Z,103066.72
2022-10-06T11:40:58.798Z,103064.16
2022-10-06T11:43:43.876Z,103067.91
2022-10-06T11:46:13.341Z,103066.72
2022-10-06T11:48:40.511Z,103067.28
2022-10-06T11:51:25.220Z,103062.44
2022-10-06T11:53:52.945Z,103062.16
2022-10-06T11:56:19.315Z,103051.38
2022-10-06T11:58:51.805Z,103049.09
2022-10-06T12:01:30.594Z,103046.38
2022-10-06T12:04:09.143Z,103044.09
2022-10-06T12:06:44.766Z,103048.16
2022-10-06T12:09:31.768Z,103048.16
2022-10-06T12:12:23.027Z,103044.00
2022-10-06T12:18:04.976Z,103059.66
2022-10-06T12:21:06.215Z,103053.75
2022-10-06T12:23:48.422Z,103052.47
2022-10-06T12:26:31.702Z,103047.88
2022-10-06T12:29:20.590Z,103060.75
2022-10-06T12:32:14.633Z,103050.91
2022-10-06T12:35:08.266Z,103048.03
2022-10-06T12:37:54.597Z,103048.88
2022-10-06T12:40:40.610Z,103043.75
2022-10-06T12:43:19.268Z,103040.94
2022-10-06T12:45:59.534Z,103041.75
2022-10-06T12:49:04.147Z,103042.09
2022-10-06T12:51:41.344Z,103039.00
2022-10-06T12:54:19.326Z,103037.19
2022-10-06T12:56:58.696Z,103033.03
2022-10-06T12:59:32.093Z,103036.66
2022-10-06T13:02:01.459Z,103039.66
2022-10-06T13:04:42.968Z,103038.13
2022-10-06T13:07:57.384Z,103043.84
2022-10-06T13:10:23.998Z,103041.81
2022-10-06T13:12:52.130Z,103044.06
2022-10-06T13:15:25.270Z,103040.25
2022-10-06T13:18:12.945Z,103047.50
2022-10-06T13:20:42.886Z,103054.16
2022-10-06T13:23:11.810Z,103038.97
2022-10-06T13:25:46.389Z,103036.97
2022-10-06T13:28:34.323Z,103036.72
2022-10-06T13:31:11.758Z,103036.88
2022-10-06T13:33:44.273Z,103043.22
2022-10-06T13:36:12.347Z,103049.44
2022-10-06T13:38:39.861Z,103045.69
2022-10-06T13:41:28.106Z,103041.91
2022-10-06T13:43:56.148Z,103039.38
2022-10-06T13:46:26.587Z,103037.72
2022-10-06T13:48:59.533Z,103039.16
2022-10-06T13:52:04.650Z,103041.13
2022-10-06T13:54:53.852Z,103035.28
2022-10-06T13:57:38.630Z,103048.66
2022-10-06T14:00:36.747Z,103044.28
2022-10-06T14:03:05.857Z,103042.38
2022-10-06T14:05:40.919Z,103046.81
2022-10-06T14:08:10.190Z,103044.88
2022-10-06T14:10:51.680Z,103041.22
2022-10-06T14:13:21.695Z,103054.47
2022-10-06T14:15:50.972Z,103049.56
2022-10-06T14:18:42.749Z,103049.69
2022-10-06T14:21:28.760Z,103054.28
2022-10-06T14:23:56.184Z,103044.69
2022-10-06T14:26:28.669Z,103045.69
2022-10-06T14:28:56.105Z,103051.56
2022-10-06T14:31:25.839Z,103046.13
2022-10-06T14:33:54.298Z,103047.94
2022-10-06T14:36:36.310Z,103046.84
2022-10-06T14:39:04.969Z,103044.66
2022-10-06T14:41:32.037Z,103046.28
2022-10-06T14:44:01.823Z,103031.59
2022-10-06T14:46:29.888Z,103040.78
2022-10-06T14:48:57.582Z,103044.06
2022-10-06T14:51:26.001Z,103030.34
2022-10-06T14:53:54.295Z,103036.25
2022-10-06T14:56:36.176Z,103031.78
2022-10-06T14:59:04.937Z,103032.53
2022-10-06T15:01:33.318Z,103026.34
2022-10-06T15:04:02.323Z,103025.72
2022-10-06T15:06:48.010Z,103024.06
2022-10-06T15:09:14.329Z,103033.09
2022-10-06T15:11:41.270Z,103019.56
2022-10-06T15:14:11.485Z,103024.03
2022-10-06T15:16:40.706Z,103023.06
2022-10-06T15:19:07.300Z,103028.38
2022-10-06T15:21:34.179Z,103025.91
2022-10-06T15:24:04.212Z,103023.47
2022-10-06T15:26:49.527Z,103026.41
2022-10-06T15:29:16.927Z,103020.72
2022-10-06T15:31:52.895Z,103016.16
2022-10-06T15:34:25.579Z,103018.81
2022-10-06T15:36:53.367Z,103017.84
2022-10-06T15:39:22.048Z,103022.28
2022-10-06T15:41:48.520Z,103030.47
2022-10-06T15:44:15.825Z,103024.91
2022-10-06T15:46:44.801Z,103029.19
2022-10-06T15:49:21.400Z,103027.22
2022-10-06T15:52:03.603Z,103027.88
2022-10-06T15:54:39.334Z,103024.94
2022-10-06T15:57:11.601Z,103014.28
2022-10-06T15:59:40.698Z,103026.53
2022-10-06T16:02:14.394Z,103020.47
2022-10-06T16:04:41.940Z,103022.44
2022-10-06T16:07:14.123Z,103028.63
2022-10-06T16:09:43.677Z,103030.41
2022-10-06T16:12:13.873Z,103030.06
2022-10-06T16:14:40.191Z,103026.63
2022-10-06T16:17:07.667Z,103026.09
2022-10-06T16:19:36.718Z,103027.84
2022-10-06T16:22:05.053Z,103031.56
2022-10-06T16:24:31.494Z,103036.09
2022-10-06T16:26:59.702Z,103036.72
2022-10-06T16:29:27.583Z,103038.16
2022-10-06T16:31:54.106Z,103036.28
2022-10-06T16:34:20.598Z,103045.88
2022-10-06T16:36:46.927Z,103035.53
2022-10-06T16:39:15.910Z,103041.81
2022-10-06T16:41:42.908Z,103040.94
2022-10-06T16:44:09.327Z,103043.66
2022-10-06T16:46:35.762Z,103047.16
2022-10-06T16:49:03.159Z,103050.53
2022-10-06T16:58:45.729Z,103045.97
2022-10-06T17:01:13.748Z,103038.34
2022-10-06T17:03:41.126Z,103043.63
2022-10-06T17:06:11.188Z,103048.84
2022-10-06T17:08:38.530Z,103043.84
2022-10-06T17:11:07.239Z,103042.94
2022-10-06T17:13:35.464Z,103043.66
2022-10-06T17:16:08.960Z,103047.78
2022-10-06T17:18:36.051Z,103049.31
2022-10-06T17:21:25.793Z,103043.19
2022-10-06T17:23:58.238Z,103040.63
2022-10-06T17:26:27.487Z,103037.06
2022-10-06T17:29:06.094Z,103042.16
2022-10-06T17:31:41.712Z,103042.16
2022-10-06T17:34:12.019Z,103042.19
2022-10-06T17:36:39.795Z,103039.72
2022-10-06T17:39:08.250Z,103044.81
2022-10-06T17:41:36.631Z,103048.09
2022-10-06T17:44:05.971Z,103044.50
2022-10-06T17:46:37.656Z,103039.84
2022-10-06T17:49:09.889Z,103041.22
2022-10-06T17:51:40.667Z,103039.03
2022-10-06T17:54:12.258Z,103036.81
2022-10-06T17:56:39.290Z,103037.34
2022-10-06T17:59:08.591Z,103039.56
2022-10-06T18:01:35.720Z,103038.44
2022-10-06T18:04:05.004Z,103026.91
2022-10-06T18:06:34.873Z,103039.78
2022-10-06T18:09:02.668Z,103044.69
2022-10-06T18:11:35.691Z,103040.69
2022-10-06T18:14:24.101Z,103036.16
2022-10-06T18:16:56.257Z,103031.38
2022-10-06T18:19:30.136Z,103028.31
2022-10-06T18:22:02.761Z,103035.56
2022-10-06T18:24:31.216Z,103034.19
2022-10-06T18:27:00.113Z,103033.78
2022-10-06T18:29:30.361Z,103027.16
2022-10-06T18:32:09.464Z,103029.34
2022-10-06T18:37:30.723Z,103026.00
2022-10-06T18:39:57.136Z,103028.88
2022-10-06T18:42:24.059Z,103031.13
2022-10-06T18:45:09.230Z,103031.41
2022-10-06T18:47:54.016Z,103024.13
2022-10-06T18:50:20.619Z,103027.09
2022-10-06T18:52:46.985Z,103020.50
2022-10-06T18:55:13.654Z,103025.94
2022-10-06T18:57:40.836Z,103020.31
2022-10-06T19:00:09.247Z,103019.75
2022-10-06T19:02:35.655Z,103028.75
2022-10-06T19:05:02.301Z,103017.06
2022-10-06T19:07:30.625Z,103021.69
2022-10-06T19:09:57.040Z,103025.34
2022-10-06T19:12:23.467Z,103017.69
2022-10-06T19:14:50.304Z,103016.31
2022-10-06T19:17:16.729Z,103017.63
2022-10-06T19:19:51.257Z,103019.66
2022-10-06T19:22:19.898Z,103026.03
2022-10-06T19:24:48.689Z,103023.69
2022-10-06T19:27:20.561Z,103022.28
2022-10-06T19:29:52.998Z,103030.56
2022-10-06T19:32:23.445Z,103030.13
2022-10-06T19:34:49.859Z,103029.78
2022-10-06T19:37:16.897Z,103026.75
2022-10-06T19:39:46.155Z,103027.09
2022-10-06T19:42:33.160Z,103026.53
2022-10-06T19:44:59.821Z,103027.72
2022-10-06T19:47:27.222Z,103030.66
2022-10-06T19:49:58.325Z,103031.13
2022-10-06T19:52:26.231Z,103044.75
2022-10-06T19:54:52.565Z,103030.47
2022-10-06T19:57:18.907Z,103038.59
2022-10-06T19:59:45.447Z,103034.84
2022-10-06T20:02:12.017Z,103037.78
2022-10-06T20:04:39.522Z,103039.00
2022-10-06T20:07:05.977Z,103029.91
2022-10-06T20:09:32.488Z,103027.53
2022-10-06T20:12:00.095Z,103032.13
2022-10-06T20:14:26.695Z,103035.19
2022-10-06T20:16:55.282Z,103032.03
2022-10-06T20:19:22.069Z,103027.78
2022-10-06T20:21:48.922Z,103030.47
2022-10-06T20:24:24.651Z,103022.13
2022-10-06T20:26:52.251Z,103026.81
2022-10-06T20:29:21.724Z,103020.31
2022-10-06T20:31:51.188Z,103020.59
2022-10-06T20:34:21.361Z,103028.69
2022-10-06T20:36:51.887Z,103033.38
2022-10-06T20:39:41.829Z,103025.88
2022-10-06T20:42:13.872Z,103026.69
2022-10-06T20:44:41.144Z,103029.28
2022-10-06T20:47:08.834Z,103034.69
2022-10-06T20:49:35.259Z,103023.63
2022-10-06T20:52:02.721Z,103022.88
2022-10-06T20:54:34.842Z,103029.94
2022-10-06T20:57:03.904Z,103026.66
2022-10-06T20:59:31.312Z,103025.00
2022-10-06T21:01:59.975Z,103021.69
2022-10-06T21:04:32.487Z,103011.66
2022-10-06T21:06:58.945Z,103009.41
2022-10-06T21:09:28.175Z,103013.97
2022-10-06T21:11:54.544Z,103013.41
2022-10-06T21:14:21.020Z,103010.31
2022-10-06T21:16:50.539Z,103009.00
2022-10-06T21:19:19.190Z,103000.53
2022-10-06T21:21:51.732Z,103004.03
2022-10-06T21:24:18.567Z,103000.75
2022-10-06T21:26:45.036Z,103009.44
2022-10-06T21:29:14.034Z,103006.38
2022-10-06T21:31:41.402Z,103005.88
2022-10-06T21:34:07.951Z,103006.09
2022-10-06T21:36:34.368Z,103007.88
2022-10-06T21:39:01.616Z,102998.34
2022-10-06T21:41:30.697Z,102998.56
2022-10-06T21:44:17.400Z,102992.47
2022-10-06T21:46:55.378Z,102993.38
2022-10-06T21:49:23.728Z,102981.41
2022-10-06T21:51:52.536Z,102985.94
2022-10-06T21:54:20.103Z,102987.00
2022-10-06T21:56:46.855Z,102975.00
2022-10-06T21:59:13.342Z,102964.75
2022-10-06T22:01:42.296Z,102963.94
2022-10-06T22:04:09.454Z,102958.78
2022-10-06T22:06:36.858Z,102960.53
2022-10-06T22:09:05.950Z,102957.22
2022-10-06T22:11:35.308Z,102956.41
2022-10-06T22:14:04.994Z,102952.03
2022-10-06T22:16:33.583Z,102946.88
2022-10-06T22:19:02.556Z,102944.50
2022-10-06T22:21:31.913Z,102937.09
2022-10-06T22:24:02.620Z,102941.53
2022-10-06T22:26:31.240Z,102944.00
2022-10-06T22:28:59.060Z,102935.91
2022-10-06T22:31:27.039Z,102934.16
2022-10-06T22:33:55.989Z,102930.75
2022-10-06T22:36:22.764Z,102928.38
2022-10-06T22:38:49.164Z,102931.06
2022-10-06T22:41:15.962Z,102920.94
2022-10-06T22:43:42.517Z,102917.66
2022-10-06T22:46:10.891Z,102915.06
2022-10-06T22:48:37.914Z,102917.88
2022-10-06T22:51:05.286Z,102912.94
2022-10-06T22:53:32.012Z,102914.91
2022-10-06T22:56:02.651Z,102917.84
2022-10-06T22:58:29.336Z,102913.72
2022-10-06T23:00:55.853Z,102905.13
2022-10-06T23:03:23.083Z,102898.41
2022-10-06T23:05:57.289Z,102901.81
2022-10-06T23:08:24.064Z,102895.94
2022-10-06T23:10:50.791Z,102889.31
2022-10-06T23:13:17.556Z,102884.28
2022-10-06T23:15:44.023Z,102884.97
2022-10-06T23:18:10.885Z,102880.06
2022-10-06T23:20:37.364Z,102878.38
2022-10-06T23:23:04.243Z,102871.56
2022-10-06T23:25:30.656Z,102875.81
2022-10-06T23:27:57.104Z,102876.63
2022-10-06T23:30:23.601Z,102876.84
2022-10-06T23:32:49.988Z,102874.47
2022-10-06T23:35:16.432Z,102870.16
2022-10-06T23:37:43.049Z,102868.38
2022-10-06T23:40:10.210Z,102867.66
2022-10-06T23:42:36.638Z,102872.25
2022-10-06T23:45:03.102Z,102862.72
2022-10-06T23:47:29.511Z,102864.59
2022-10-06T23:49:55.877Z,102864.69
2022-10-06T23:52:22.480Z,102862.13
2022-10-06T23:54:49.560Z,102860.34
2022-10-06T23:57:15.954Z,102856.31
2022-10-06T23:59:42.341Z,102860.06
